CYEN

Details ICAO CYEN (YEN)
Name Estevan Regional
Region Canada
Timezone America/Regina (UTC-6.0)
Plans Departing 6
Arriving 2
Stats Elevation 1,905 ft / 581 m (AMSL)
Location 49.209065° -102.963424°
Runways 2
Magnetic Variation 7.607° E
Sunrise 2017-12-11 14:38:27 UTC / 2017-12-11 08:38:27 Local
Sunset 2017-12-11 22:54:56 UTC / 2017-12-11 16:54:56 Local
Advertisement - Login to hide

Runways

ID Width Length Bearing (true) Bearing (mag) Surface Threshold Offset Overrun Length
08 98 ft / 30 m 4,989 ft / 1,521 m 89.73° 82.12° Asphalt 0 ft / 0 m 0 ft / 0 m
15 75 ft / 23 m 3,003 ft / 915 m 159.50° 151.89° Asphalt 0 ft / 0 m 0 ft / 0 m
26 98 ft / 30 m 4,989 ft / 1,521 m 269.75° 262.14° Asphalt 0 ft / 0 m 0 ft / 0 m
33 75 ft / 23 m 3,003 ft / 915 m 339.50° 331.89° Asphalt 0 ft / 0 m 0 ft / 0 m

Map

Weather


0- 5 10 15 20 25 30 35+ Temperature / ° C

Clouds and Precipitation
Forecast for 2017-12-11 12:00 UTC. Updated 42 minutes ago

Ground ~20,000 ft ~40,000 ft Winds

METAR

CYEN 111000Z 33024G32KT 15SM -DZ OVC015 02/M01 A3003 RMK ST8 SLP197

TAF

Not found

Frequencies

Unicom 123.00 MHz CTAF
Warning: Do not use this data for real-world aviation or navigation. No guarantee of current accuracy is given.